createdAt,value
2023-05-06T00:01:36.389Z,15.40
2023-05-06T00:04:03.055Z,15.40
2023-05-06T00:06:29.853Z,15.40
2023-05-06T00:08:56.377Z,15.30
2023-05-06T00:11:22.850Z,15.30
2023-05-06T00:13:49.326Z,15.30
2023-05-06T00:16:16.021Z,15.30
2023-05-06T00:18:42.839Z,15.30
2023-05-06T00:21:09.413Z,15.40
2023-05-06T00:23:35.879Z,15.30
2023-05-06T00:26:02.394Z,15.30
2023-05-06T00:28:29.010Z,15.20
2023-05-06T00:30:55.527Z,15.30
2023-05-06T00:33:22.101Z,15.30
2023-05-06T00:35:48.809Z,15.30
2023-05-06T00:38:15.449Z,15.30
2023-05-06T00:40:42.737Z,15.30
2023-05-06T00:43:09.374Z,15.30
2023-05-06T00:45:36.491Z,15.20
2023-05-06T00:48:04.658Z,15.20
2023-05-06T00:50:33.299Z,15.20
2023-05-06T00:53:02.235Z,15.20
2023-05-06T00:55:30.274Z,15.10
2023-05-06T00:57:57.313Z,15.10
2023-05-06T01:00:23.952Z,15.10
2023-05-06T01:02:51.363Z,15.20
2023-05-06T01:05:21.444Z,15.20
2023-05-06T01:08:12.185Z,15.20
2023-05-06T01:11:00.321Z,15.10
2023-05-06T01:13:36.008Z,15.10
2023-05-06T01:16:05.064Z,15.00
2023-05-06T01:18:32.879Z,15.00
2023-05-06T01:21:00.182Z,15.00
2023-05-06T01:23:26.922Z,15.00
2023-05-06T01:25:53.442Z,15.00
2023-05-06T01:28:20.124Z,14.90
2023-05-06T01:31:03.691Z,14.90
2023-05-06T01:33:53.570Z,14.90
2023-05-06T01:36:26.005Z,14.70
2023-05-06T01:39:09.905Z,14.60
2023-05-06T01:41:38.822Z,14.60
2023-05-06T01:44:06.943Z,14.40
2023-05-06T01:46:35.319Z,14.40
2023-05-06T01:49:05.821Z,14.40
2023-05-06T01:51:34.173Z,14.40
2023-05-06T01:54:02.367Z,14.30
2023-05-06T01:56:30.278Z,14.30
2023-05-06T01:58:59.511Z,14.20
2023-05-06T02:01:26.490Z,14.20
2023-05-06T02:03:53.196Z,14.10
2023-05-06T02:06:20.356Z,14.10
2023-05-06T02:08:47.398Z,14.10
2023-05-06T02:11:18.973Z,14.10
2023-05-06T02:13:47.497Z,14.10
2023-05-06T02:16:14.088Z,14.10
2023-05-06T02:18:41.402Z,14.10
2023-05-06T02:21:09.593Z,14.10
2023-05-06T02:23:36.186Z,14.10
2023-05-06T02:26:02.739Z,14.10
2023-05-06T02:28:29.216Z,14.10
2023-05-06T02:30:59.008Z,14.10
2023-05-06T02:33:26.104Z,13.90
2023-05-06T02:35:52.617Z,13.70
2023-05-06T02:38:19.662Z,13.60
2023-05-06T02:40:46.130Z,13.60
2023-05-06T02:43:12.812Z,13.60
2023-05-06T02:45:39.415Z,13.70
2023-05-06T02:48:06.333Z,13.70
2023-05-06T02:50:35.308Z,13.80
2023-05-06T02:53:01.808Z,13.80
2023-05-06T02:55:28.321Z,13.80
2023-05-06T02:57:55.039Z,13.60
2023-05-06T03:00:21.584Z,13.50
2023-05-06T03:02:48.190Z,13.50
2023-05-06T03:05:14.728Z,13.40
2023-05-06T03:07:41.497Z,13.20
2023-05-06T03:10:08.723Z,13.20
2023-05-06T03:12:37.620Z,13.20
2023-05-06T03:15:04.585Z,13.10
2023-05-06T03:17:31.558Z,13.00
2023-05-06T03:19:58.293Z,13.00
2023-05-06T03:22:24.862Z,12.90
2023-05-06T03:24:51.461Z,12.80
2023-05-06T03:27:18.787Z,12.70
2023-05-06T03:29:49.559Z,12.70
2023-05-06T03:32:18.078Z,12.80
2023-05-06T03:34:44.574Z,12.70
2023-05-06T03:37:16.106Z,12.70
2023-05-06T03:39:48.324Z,12.60
2023-05-06T03:42:16.181Z,12.70
2023-05-06T03:44:44.233Z,12.80
2023-05-06T03:47:11.297Z,12.80
2023-05-06T03:49:37.861Z,12.60
2023-05-06T03:52:05.449Z,12.70
2023-05-06T03:54:32.237Z,12.70
2023-05-06T03:56:59.015Z,12.80
2023-05-06T03:59:25.623Z,12.90
2023-05-06T04:01:53.171Z,12.90
2023-05-06T04:04:19.845Z,13.00
2023-05-06T04:06:46.567Z,13.00
2023-05-06T04:09:13.339Z,12.90
2023-05-06T04:11:40.318Z,12.90
2023-05-06T04:14:09.556Z,12.90
2023-05-06T04:16:37.061Z,13.00
2023-05-06T04:19:06.498Z,13.10
2023-05-06T04:21:34.600Z,13.10
2023-05-06T04:24:05.622Z,13.10
2023-05-06T04:26:36.611Z,13.10
2023-05-06T04:29:04.058Z,13.00
2023-05-06T04:31:34.999Z,12.90
2023-05-06T04:34:04.479Z,13.10
2023-05-06T04:36:31.930Z,13.10
2023-05-06T04:39:11.928Z,13.00
2023-05-06T04:41:39.849Z,13.00
2023-05-06T04:44:07.697Z,13.00
2023-05-06T04:46:35.963Z,13.00
2023-05-06T04:49:03.774Z,13.10
2023-05-06T04:51:31.584Z,13.30
2023-05-06T04:53:59.126Z,13.40
2023-05-06T04:56:26.163Z,13.60
2023-05-06T04:58:52.731Z,13.70
2023-05-06T05:01:19.565Z,13.80
2023-05-06T05:03:46.429Z,13.90
2023-05-06T05:06:13.716Z,13.80
2023-05-06T05:08:40.247Z,13.90
2023-05-06T05:11:08.707Z,14.00
2023-05-06T05:13:35.539Z,13.90
2023-05-06T05:16:03.296Z,13.90
2023-05-06T05:18:32.459Z,13.80
2023-05-06T05:21:05.403Z,13.80
2023-05-06T05:23:33.443Z,13.80
2023-05-06T05:26:00.641Z,14.00
2023-05-06T05:28:28.009Z,14.10
2023-05-06T05:30:55.639Z,14.10
2023-05-06T05:33:22.163Z,14.30
2023-05-06T05:35:48.816Z,14.60
2023-05-06T05:38:16.540Z,14.80
2023-05-06T05:40:43.759Z,14.90
2023-05-06T05:43:10.957Z,15.10
2023-05-06T05:45:39.917Z,15.10
2023-05-06T05:48:08.605Z,15.20
2023-05-06T05:50:35.282Z,15.20
2023-05-06T05:53:02.160Z,15.20
2023-05-06T05:55:29.910Z,15.30
2023-05-06T05:57:56.599Z,15.30
2023-05-06T06:00:24.524Z,15.50
2023-05-06T06:02:58.195Z,15.50
2023-05-06T06:05:24.821Z,15.40
2023-05-06T06:07:51.308Z,15.40
2023-05-06T06:10:18.196Z,15.60
2023-05-06T06:12:45.255Z,15.60
2023-05-06T06:15:16.541Z,15.70
2023-05-06T06:17:44.453Z,15.80
2023-05-06T06:20:13.230Z,15.90
2023-05-06T06:22:39.964Z,16.10
2023-05-06T06:25:07.559Z,16.00
2023-05-06T06:27:35.970Z,15.70
2023-05-06T06:30:03.653Z,15.70
2023-05-06T06:32:30.281Z,15.60
2023-05-06T06:34:56.836Z,15.50
2023-05-06T06:37:23.373Z,15.70
2023-05-06T06:39:49.895Z,15.80
2023-05-06T06:42:16.407Z,16.00
2023-05-06T06:44:50.815Z,16.10
2023-05-06T06:47:17.376Z,16.10
2023-05-06T06:49:44.018Z,16.10
2023-05-06T06:52:10.514Z,16.20
2023-05-06T06:54:40.491Z,16.20
2023-05-06T06:57:07.032Z,16.30
2023-05-06T06:59:33.762Z,16.50
2023-05-06T07:02:00.337Z,16.70
2023-05-06T07:04:26.794Z,16.70
2023-05-06T07:06:53.401Z,16.70
2023-05-06T07:09:19.862Z,16.80
2023-05-06T07:11:46.369Z,16.90
2023-05-06T07:14:12.852Z,17.20
2023-05-06T07:16:39.444Z,17.50
2023-05-06T07:19:06.027Z,17.50
2023-05-06T07:21:32.574Z,17.50
2023-05-06T07:23:59.387Z,17.60
2023-05-06T07:26:26.295Z,17.70
2023-05-06T07:28:53.082Z,17.80
2023-05-06T07:31:21.127Z,18.00
2023-05-06T07:33:48.220Z,17.80
2023-05-06T07:36:14.808Z,17.80
2023-05-06T07:38:41.993Z,17.90
2023-05-06T07:41:08.768Z,18.00
2023-05-06T07:43:35.271Z,18.00
2023-05-06T07:46:04.754Z,18.10
2023-05-06T07:48:33.088Z,18.20
2023-05-06T07:51:00.299Z,18.20
2023-05-06T07:53:27.336Z,18.30
2023-05-06T07:55:57.003Z,18.40
2023-05-06T07:58:23.490Z,18.50
2023-05-06T08:00:49.903Z,18.60
2023-05-06T08:03:16.998Z,18.80
2023-05-06T08:05:43.713Z,18.90
2023-05-06T08:08:10.763Z,18.90
2023-05-06T08:10:37.219Z,19.00
2023-05-06T08:13:03.753Z,19.20
2023-05-06T08:15:30.292Z,19.30
2023-05-06T08:18:02.165Z,19.30
2023-05-06T08:20:33.742Z,19.40
2023-05-06T08:23:00.938Z,19.50
2023-05-06T08:25:29.553Z,19.60
2023-05-06T08:27:56.329Z,19.70
2023-05-06T08:30:22.816Z,19.90
2023-05-06T08:32:49.345Z,19.90
2023-05-06T08:35:15.961Z,20.00
2023-05-06T08:37:42.438Z,20.20
2023-05-06T08:40:18.460Z,20.20
2023-05-06T08:42:49.256Z,20.20
2023-05-06T08:45:19.456Z,20.20
2023-05-06T08:47:49.041Z,20.20
2023-05-06T08:50:15.939Z,20.30
2023-05-06T08:52:42.558Z,20.50
2023-05-06T08:55:10.321Z,20.50
2023-05-06T08:57:37.410Z,20.60
2023-05-06T09:00:04.945Z,20.60
2023-05-06T09:02:31.650Z,20.70
2023-05-06T09:04:59.710Z,20.90
2023-05-06T09:07:26.291Z,21.00
2023-05-06T09:09:52.814Z,21.30
2023-05-06T09:12:19.294Z,21.50
2023-05-06T09:14:50.063Z,21.50
2023-05-06T09:17:24.404Z,21.70
2023-05-06T09:19:52.932Z,21.80
2023-05-06T09:22:23.869Z,21.90
2023-05-06T09:24:57.067Z,22.00
2023-05-06T09:27:28.968Z,22.00
2023-05-06T09:30:08.347Z,22.00
2023-05-06T09:32:38.119Z,22.00
2023-05-06T09:35:06.223Z,21.90
2023-05-06T09:37:33.055Z,22.00
2023-05-06T09:40:00.931Z,22.00
2023-05-06T09:42:29.939Z,22.10
2023-05-06T09:45:01.068Z,22.30
2023-05-06T09:47:34.246Z,22.30
2023-05-06T09:50:07.180Z,22.20
2023-05-06T09:52:33.715Z,22.30
2023-05-06T09:55:01.301Z,22.30
2023-05-06T09:57:30.700Z,22.70
2023-05-06T09:59:58.009Z,22.70
2023-05-06T10:02:26.398Z,22.60
2023-05-06T10:04:56.172Z,22.60
2023-05-06T10:07:23.818Z,22.70
2023-05-06T10:09:51.419Z,22.80
2023-05-06T10:12:19.788Z,23.00
2023-05-06T10:14:47.178Z,22.90
2023-05-06T10:17:14.329Z,22.90
2023-05-06T10:19:44.904Z,22.90
2023-05-06T10:22:42.858Z,23.10
2023-05-06T10:25:25.698Z,23.20
2023-05-06T10:27:52.892Z,22.90
2023-05-06T10:30:20.560Z,23.00
2023-05-06T10:32:47.335Z,23.20
2023-05-06T10:35:22.609Z,23.50
2023-05-06T10:37:51.148Z,23.70
2023-05-06T10:40:17.830Z,23.80
2023-05-06T10:42:44.448Z,23.70
2023-05-06T10:45:11.741Z,23.70
2023-05-06T10:47:55.970Z,23.90
2023-05-06T10:50:27.077Z,23.90
2023-05-06T10:52:55.832Z,23.90
2023-05-06T10:55:37.806Z,23.90
2023-05-06T10:58:18.925Z,23.80
2023-05-06T11:00:58.109Z,23.70
2023-05-06T11:03:24.859Z,23.70
2023-05-06T11:05:52.226Z,23.80
2023-05-06T11:08:23.358Z,23.80
2023-05-06T11:10:49.874Z,23.90
2023-05-06T11:13:27.326Z,24.00
2023-05-06T11:15:57.562Z,24.00
2023-05-06T11:18:27.854Z,24.00
2023-05-06T11:21:05.281Z,23.90
2023-05-06T11:23:46.966Z,23.70
2023-05-06T11:26:14.192Z,23.70
2023-05-06T11:28:43.967Z,23.80
2023-05-06T11:31:12.158Z,24.00
2023-05-06T11:33:46.274Z,24.20
2023-05-06T11:36:17.710Z,24.30
2023-05-06T11:38:45.524Z,24.40
2023-05-06T11:41:12.879Z,24.60
2023-05-06T11:43:39.775Z,24.60
2023-05-06T11:46:06.465Z,24.40
2023-05-06T11:48:32.969Z,24.60
2023-05-06T11:51:00.422Z,24.80
2023-05-06T11:53:27.009Z,25.10
2023-05-06T11:55:54.299Z,25.30
2023-05-06T11:58:28.392Z,25.50
2023-05-06T12:00:56.860Z,25.70
2023-05-06T12:03:25.180Z,25.60
2023-05-06T12:05:52.260Z,25.60
2023-05-06T12:08:28.340Z,25.30
2023-05-06T12:11:06.942Z,25.10
2023-05-06T12:13:36.602Z,24.90
2023-05-06T12:16:04.200Z,24.90
2023-05-06T12:18:30.933Z,25.00
2023-05-06T12:21:02.443Z,25.30
2023-05-06T12:23:29.050Z,25.60
2023-05-06T12:26:06.275Z,25.90
2023-05-06T12:28:35.375Z,25.90
2023-05-06T12:31:21.321Z,25.60
2023-05-06T12:33:51.416Z,25.60
2023-05-06T12:36:19.109Z,25.50
2023-05-06T12:38:59.705Z,25.40
2023-05-06T12:41:42.466Z,25.20
2023-05-06T12:44:29.558Z,25.40
2023-05-06T12:46:56.456Z,25.50
2023-05-06T12:49:23.067Z,25.40
2023-05-06T12:52:09.517Z,25.30
2023-05-06T12:54:36.927Z,25.20
2023-05-06T12:57:04.155Z,25.30
2023-05-06T12:59:31.606Z,25.30
2023-05-06T13:01:59.094Z,25.20
2023-05-06T13:04:26.236Z,25.40
2023-05-06T13:06:52.891Z,25.80
2023-05-06T13:09:19.463Z,26.10
2023-05-06T13:11:45.987Z,26.30
2023-05-06T13:14:12.547Z,26.50
2023-05-06T13:16:39.487Z,26.60
2023-05-06T13:19:06.142Z,26.70
2023-05-06T13:21:32.841Z,26.80
2023-05-06T13:23:59.427Z,26.90
2023-05-06T13:26:26.661Z,27.00
2023-05-06T13:28:53.211Z,27.20
2023-05-06T13:31:19.768Z,27.50
2023-05-06T13:33:46.766Z,27.50
2023-05-06T13:36:13.221Z,27.40
2023-05-06T13:38:40.074Z,27.30
2023-05-06T13:41:07.476Z,27.40
2023-05-06T13:43:34.091Z,27.50
2023-05-06T13:46:00.797Z,27.60
2023-05-06T13:48:27.314Z,27.30
2023-05-06T13:50:53.784Z,27.00
2023-05-06T13:53:20.549Z,26.70
2023-05-06T13:55:47.197Z,26.80
2023-05-06T13:58:13.654Z,27.00
2023-05-06T14:00:40.254Z,27.00
2023-05-06T14:03:07.005Z,26.80
2023-05-06T14:05:33.672Z,26.60
2023-05-06T14:08:00.336Z,26.30
2023-05-06T14:10:26.824Z,26.10
2023-05-06T14:12:53.378Z,26.00
2023-05-06T14:15:19.989Z,25.80
2023-05-06T14:17:46.485Z,25.80
2023-05-06T14:20:13.027Z,25.70
2023-05-06T14:22:40.975Z,25.70
2023-05-06T14:25:08.764Z,25.70
2023-05-06T14:27:36.007Z,25.40
2023-05-06T14:30:08.264Z,25.20
2023-05-06T14:32:35.839Z,24.80
2023-05-06T14:35:02.436Z,24.50
2023-05-06T14:37:29.095Z,24.40
2023-05-06T14:39:57.123Z,24.40
2023-05-06T14:42:23.700Z,24.50
2023-05-06T14:44:50.700Z,24.30
2023-05-06T14:47:17.538Z,24.20
2023-05-06T14:49:44.118Z,24.10
2023-05-06T14:52:10.627Z,24.10
2023-05-06T14:54:42.043Z,24.10
2023-05-06T14:57:10.550Z,24.30
2023-05-06T14:59:38.294Z,24.30
2023-05-06T15:02:07.707Z,24.10
2023-05-06T15:04:35.258Z,24.00
2023-05-06T15:07:02.745Z,24.00
2023-05-06T15:09:29.221Z,24.10
2023-05-06T15:11:56.070Z,24.10
2023-05-06T15:14:22.542Z,24.00
2023-05-06T15:16:49.091Z,24.00
2023-05-06T15:19:15.590Z,24.00
2023-05-06T15:21:42.076Z,23.90
2023-05-06T15:24:08.834Z,23.90
2023-05-06T15:26:35.510Z,23.80
2023-05-06T15:29:02.050Z,24.00
2023-05-06T15:31:28.751Z,24.30
2023-05-06T15:33:55.371Z,24.50
2023-05-06T15:36:21.860Z,24.50
2023-05-06T15:38:51.378Z,24.60
2023-05-06T15:41:19.020Z,24.60
2023-05-06T15:43:45.639Z,24.60
2023-05-06T15:46:12.180Z,24.50
2023-05-06T15:48:38.702Z,24.30
2023-05-06T15:51:05.241Z,24.30
2023-05-06T15:53:31.763Z,24.20
2023-05-06T15:56:08.968Z,24.10
2023-05-06T15:58:43.650Z,24.00
2023-05-06T16:01:11.210Z,23.80
2023-05-06T16:03:41.041Z,23.60
2023-05-06T16:06:09.021Z,23.50
2023-05-06T16:08:36.276Z,23.50
2023-05-06T16:11:03.151Z,23.40
2023-05-06T16:13:29.679Z,23.40
2023-05-06T16:15:56.306Z,23.30
2023-05-06T16:18:22.822Z,23.30
2023-05-06T16:20:49.341Z,23.20
2023-05-06T16:23:16.210Z,23.30
2023-05-06T16:25:43.078Z,23.30
2023-05-06T16:28:09.631Z,23.30
2023-05-06T16:30:36.822Z,23.40
2023-05-06T16:33:04.203Z,23.30
2023-05-06T16:35:31.225Z,23.30
2023-05-06T16:37:57.825Z,23.30
2023-05-06T16:40:24.338Z,23.10
2023-05-06T16:42:51.007Z,23.10
2023-05-06T16:45:17.520Z,23.00
2023-05-06T16:47:44.417Z,23.00
2023-05-06T16:50:12.111Z,22.90
2023-05-06T16:52:38.864Z,22.90
2023-05-06T16:55:06.403Z,22.90
2023-05-06T16:57:33.174Z,22.80
2023-05-06T17:00:01.820Z,22.80
2023-05-06T17:02:28.459Z,22.70
2023-05-06T17:04:55.002Z,22.70
2023-05-06T17:07:21.747Z,22.60
2023-05-06T17:09:48.227Z,22.60
2023-05-06T17:12:14.713Z,22.60
2023-05-06T17:14:42.720Z,22.80
2023-05-06T17:17:09.224Z,22.80
2023-05-06T17:19:35.718Z,22.80
2023-05-06T17:22:02.240Z,22.80
2023-05-06T17:24:28.828Z,22.90
2023-05-06T17:26:55.613Z,22.80
2023-05-06T17:29:22.242Z,22.70
2023-05-06T17:31:49.630Z,22.60
2023-05-06T17:34:16.394Z,22.40
2023-05-06T17:36:43.046Z,22.40
2023-05-06T17:39:09.685Z,22.40
2023-05-06T17:41:36.282Z,22.40
2023-05-06T17:44:02.827Z,22.30
2023-05-06T17:46:29.362Z,22.20
2023-05-06T17:48:55.894Z,22.20
2023-05-06T17:51:22.357Z,22.20
2023-05-06T17:53:48.841Z,22.10
2023-05-06T17:56:16.474Z,22.10
2023-05-06T17:58:42.975Z,22.10
2023-05-06T18:01:09.565Z,22.00
2023-05-06T18:03:36.292Z,22.00
2023-05-06T18:06:03.066Z,22.00
2023-05-06T18:08:29.609Z,21.90
2023-05-06T18:10:56.253Z,21.90
2023-05-06T18:13:23.303Z,21.80
2023-05-06T18:15:49.881Z,21.80
2023-05-06T18:18:16.513Z,21.70
2023-05-06T18:20:43.079Z,21.70
2023-05-06T18:23:09.583Z,21.70
2023-05-06T18:25:36.029Z,21.50
2023-05-06T18:28:04.866Z,21.50
2023-05-06T18:30:31.381Z,21.40
2023-05-06T18:32:58.031Z,21.30
2023-05-06T18:35:25.673Z,21.20
2023-05-06T18:37:52.465Z,21.10
2023-05-06T18:40:19.076Z,21.00
2023-05-06T18:42:47.405Z,20.90
2023-05-06T18:45:13.930Z,20.80
2023-05-06T18:47:40.542Z,20.70
2023-05-06T18:50:08.232Z,20.60
2023-05-06T18:52:37.451Z,20.60
2023-05-06T18:55:05.443Z,20.60
2023-05-06T18:57:32.004Z,20.50
2023-05-06T18:59:58.512Z,20.50
2023-05-06T19:02:25.257Z,20.40
2023-05-06T19:04:51.807Z,20.40
2023-05-06T19:07:18.272Z,20.30
2023-05-06T19:09:44.813Z,20.30
2023-05-06T19:12:11.477Z,20.20
2023-05-06T19:14:38.039Z,20.20
2023-05-06T19:17:04.813Z,20.10
2023-05-06T19:19:31.774Z,20.10
2023-05-06T19:21:59.070Z,20.00
2023-05-06T19:24:25.899Z,20.00
2023-05-06T19:26:52.431Z,20.00
2023-05-06T19:29:18.920Z,20.00
2023-05-06T19:31:45.433Z,20.00
2023-05-06T19:34:11.944Z,20.10
2023-05-06T19:36:38.452Z,20.00
2023-05-06T19:39:05.062Z,20.00
2023-05-06T19:41:31.598Z,20.00
2023-05-06T19:43:58.076Z,19.90
2023-05-06T19:46:24.661Z,19.90
2023-05-06T19:48:51.193Z,19.90
2023-05-06T19:51:17.733Z,19.80
2023-05-06T19:53:44.256Z,19.70
2023-05-06T19:56:12.432Z,19.60
2023-05-06T19:58:39.542Z,19.50
2023-05-06T20:01:06.106Z,19.60
2023-05-06T20:03:32.999Z,19.60
2023-05-06T20:05:59.802Z,19.60
2023-05-06T20:08:26.893Z,19.50
2023-05-06T20:10:53.471Z,19.40
2023-05-06T20:13:20.473Z,19.30
2023-05-06T20:15:47.561Z,19.30
2023-05-06T20:18:14.497Z,19.30
2023-05-06T20:20:41.091Z,19.30
2023-05-06T20:23:07.567Z,19.30
2023-05-06T20:25:36.104Z,19.40
2023-05-06T20:28:04.110Z,19.40
2023-05-06T20:30:30.748Z,19.40
2023-05-06T20:32:57.607Z,19.30
2023-05-06T20:35:24.411Z,19.20
2023-05-06T20:37:50.921Z,19.20
2023-05-06T20:40:17.506Z,19.20
2023-05-06T20:42:44.010Z,19.20
2023-05-06T20:45:10.988Z,19.10
2023-05-06T20:47:37.855Z,19.10
2023-05-06T20:50:04.800Z,19.00
2023-05-06T20:52:31.613Z,19.00
2023-05-06T20:54:58.330Z,19.00
2023-05-06T20:57:24.851Z,19.00
2023-05-06T20:59:52.337Z,18.90
2023-05-06T21:02:18.919Z,18.80
2023-05-06T21:04:45.453Z,18.80
2023-05-06T21:07:11.969Z,18.80
2023-05-06T21:09:38.458Z,18.80
2023-05-06T21:12:05.188Z,18.80
2023-05-06T21:14:31.744Z,18.80
2023-05-06T21:16:58.331Z,18.70
2023-05-06T21:19:24.784Z,18.70
2023-05-06T21:21:51.348Z,18.60
2023-05-06T21:24:17.874Z,18.50
2023-05-06T21:26:44.546Z,18.50
2023-05-06T21:29:11.063Z,18.50
2023-05-06T21:31:38.587Z,18.50
2023-05-06T21:34:07.830Z,18.50
2023-05-06T21:36:36.206Z,18.50
2023-05-06T21:39:08.356Z,18.40
2023-05-06T21:41:36.044Z,18.30
2023-05-06T21:44:07.193Z,18.30
2023-05-06T21:46:34.819Z,18.30
2023-05-06T21:49:01.480Z,18.30
2023-05-06T21:51:29.318Z,18.30
2023-05-06T21:53:55.800Z,18.40
2023-05-06T21:56:22.530Z,18.40
2023-05-06T21:58:49.146Z,18.30
2023-05-06T22:01:15.920Z,18.30
2023-05-06T22:03:45.067Z,18.30
2023-05-06T22:06:12.301Z,18.20
2023-05-06T22:08:39.820Z,18.20
2023-05-06T22:11:06.791Z,18.20
2023-05-06T22:13:33.449Z,18.10
2023-05-06T22:16:00.224Z,18.10
2023-05-06T22:18:27.961Z,18.10
2023-05-06T22:20:56.774Z,18.20
2023-05-06T22:23:24.618Z,18.20
2023-05-06T22:25:54.514Z,18.10
2023-05-06T22:28:21.883Z,18.10
2023-05-06T22:30:48.540Z,18.10
2023-05-06T22:33:15.048Z,18.10
2023-05-06T22:35:41.683Z,18.10
2023-05-06T22:38:08.640Z,17.90
2023-05-06T22:40:35.299Z,17.70
2023-05-06T22:43:01.833Z,17.60
2023-05-06T22:45:28.396Z,17.50
2023-05-06T22:47:54.990Z,17.40
2023-05-06T22:50:24.987Z,17.40
2023-05-06T22:52:51.636Z,17.40
2023-05-06T22:55:18.224Z,17.40
2023-05-06T22:57:44.930Z,17.40
2023-05-06T23:00:12.756Z,17.30
2023-05-06T23:02:39.758Z,17.30
2023-05-06T23:05:06.535Z,17.30
2023-05-06T23:07:33.030Z,17.30
2023-05-06T23:09:59.657Z,17.30
2023-05-06T23:12:26.308Z,17.40
2023-05-06T23:14:52.774Z,17.50
2023-05-06T23:17:19.223Z,17.40
2023-05-06T23:19:46.079Z,17.20
2023-05-06T23:22:12.685Z,17.00
2023-05-06T23:24:39.372Z,16.90
2023-05-06T23:27:05.883Z,16.80
2023-05-06T23:29:32.424Z,16.80
2023-05-06T23:31:59.275Z,16.60
2023-05-06T23:34:27.355Z,16.60
2023-05-06T23:36:53.884Z,16.60
2023-05-06T23:39:20.424Z,16.60
2023-05-06T23:41:46.909Z,16.60
2023-05-06T23:44:13.450Z,16.60
2023-05-06T23:46:40.122Z,16.50
2023-05-06T23:49:06.653Z,16.50
2023-05-06T23:51:33.204Z,16.50
2023-05-06T23:53:59.699Z,16.50
2023-05-06T23:56:26.250Z,16.50
2023-05-06T23:58:52.737Z,16.40
